createdAt,value
2019-02-28T00:01:03.032Z,80.80
2019-02-28T00:06:28.004Z,81.10
2019-02-28T00:11:44.826Z,80.80
2019-02-28T00:17:01.961Z,80.50
2019-02-28T00:22:18.502Z,80.40
2019-02-28T00:27:35.155Z,80.50
2019-02-28T00:32:51.754Z,80.80
2019-02-28T00:38:08.641Z,80.50
2019-02-28T00:43:25.792Z,80.70
2019-02-28T00:48:42.219Z,79.70
2019-02-28T00:53:58.762Z,79.70
2019-02-28T00:59:15.612Z,80.10
2019-02-28T01:04:32.279Z,80.30
2019-02-28T01:09:48.906Z,79.70
2019-02-28T01:15:07.191Z,80.40
2019-02-28T01:20:23.704Z,81.40
2019-02-28T01:25:40.931Z,80.90
2019-02-28T01:30:57.339Z,80.60
2019-02-28T01:36:15.644Z,80.80
2019-02-28T01:41:32.007Z,82.70
2019-02-28T01:46:49.389Z,81.90
2019-02-28T01:52:09.629Z,82.00
2019-02-28T01:57:24.382Z,81.50
2019-02-28T02:02:41.825Z,81.20
2019-02-28T02:07:58.547Z,81.00
2019-02-28T02:13:15.666Z,81.30
2019-02-28T02:18:32.462Z,81.30
2019-02-28T02:23:49.569Z,82.20
2019-02-28T02:29:07.643Z,82.20
2019-02-28T02:34:24.354Z,81.20
2019-02-28T02:39:41.937Z,81.30
2019-02-28T02:44:59.010Z,81.50
2019-02-28T02:50:15.673Z,81.90
2019-02-28T02:55:32.343Z,81.30
2019-02-28T03:00:51.182Z,81.70
2019-02-28T03:06:12.106Z,81.70
2019-02-28T03:11:26.199Z,81.60
2019-02-28T03:16:44.059Z,80.90
2019-02-28T03:22:01.687Z,81.00
2019-02-28T03:27:20.007Z,81.60
2019-02-28T03:32:41.909Z,82.00
2019-02-28T03:37:55.515Z,81.90
2019-02-28T03:43:12.513Z,81.10
2019-02-28T03:48:34.642Z,80.90
2019-02-28T03:53:47.909Z,81.10
2019-02-28T03:59:04.986Z,81.80
2019-02-28T04:04:21.815Z,81.80
2019-02-28T04:09:43.719Z,81.40
2019-02-28T04:14:57.527Z,81.40
2019-02-28T04:20:14.341Z,81.70
2019-02-28T04:25:31.361Z,81.30
2019-02-28T04:30:48.117Z,81.10
2019-02-28T04:36:05.202Z,80.90
2019-02-28T04:41:22.040Z,81.00
2019-02-28T04:46:38.851Z,81.30
2019-02-28T04:51:55.775Z,81.70
2019-02-28T04:57:12.874Z,82.40
2019-02-28T05:02:29.814Z,82.80
2019-02-28T05:07:46.392Z,82.40
2019-02-28T05:13:03.286Z,82.00
2019-02-28T05:18:20.057Z,82.30
2019-02-28T05:23:36.998Z,82.80
2019-02-28T05:28:54.200Z,83.10
2019-02-28T05:34:13.229Z,85.60
2019-02-28T05:39:30.977Z,87.00
2019-02-28T05:44:46.904Z,90.80
2019-02-28T05:50:03.475Z,87.80
2019-02-28T05:55:24.439Z,86.80
2019-02-28T06:00:39.038Z,89.00
2019-02-28T06:05:55.819Z,89.30
2019-02-28T06:11:12.852Z,90.10
2019-02-28T06:16:29.859Z,90.30
2019-02-28T06:21:46.921Z,91.50
2019-02-28T06:27:06.769Z,91.80
2019-02-28T06:32:23.589Z,91.20
2019-02-28T06:37:41.743Z,92.30
2019-02-28T06:42:58.771Z,91.40
2019-02-28T06:48:15.635Z,91.20
2019-02-28T06:53:36.202Z,91.00
2019-02-28T06:58:52.573Z,90.90
2019-02-28T07:04:11.495Z,90.80
2019-02-28T07:09:28.174Z,90.80
2019-02-28T07:14:49.379Z,90.80
2019-02-28T07:20:03.332Z,90.80
2019-02-28T07:25:19.969Z,92.90
2019-02-28T07:30:36.877Z,92.70
2019-02-28T07:35:53.785Z,92.00
2019-02-28T07:41:10.487Z,91.70
2019-02-28T07:46:27.909Z,91.60
2019-02-28T07:51:45.057Z,91.60
2019-02-28T07:57:01.771Z,91.60
2019-02-28T08:02:18.902Z,91.40
2019-02-28T08:07:35.453Z,91.80
2019-02-28T08:12:52.097Z,92.10
2019-02-28T08:18:08.807Z,92.20
2019-02-28T08:23:29.918Z,91.60
2019-02-28T08:28:43.708Z,91.90
2019-02-28T08:34:00.617Z,92.00
2019-02-28T08:39:17.378Z,91.60
2019-02-28T08:44:34.242Z,91.60
2019-02-28T08:49:50.989Z,92.10
2019-02-28T08:55:10.673Z,92.10
2019-02-28T09:00:31.045Z,91.80
2019-02-28T09:05:46.385Z,91.40
2019-02-28T09:11:03.252Z,92.40
2019-02-28T09:16:20.156Z,91.70
2019-02-28T09:21:36.771Z,91.90
2019-02-28T09:26:53.915Z,92.80
2019-02-28T09:32:13.545Z,92.60
2019-02-28T09:37:29.807Z,92.00
2019-02-28T09:42:47.919Z,92.00
2019-02-28T09:48:04.929Z,91.80
2019-02-28T09:53:21.937Z,92.30
2019-02-28T09:58:38.324Z,92.70
2019-02-28T10:03:55.325Z,92.50
2019-02-28T10:09:13.060Z,92.40
2019-02-28T10:14:30.173Z,92.70
2019-02-28T10:19:49.161Z,92.60
2019-02-28T10:25:06.490Z,92.10
2019-02-28T10:30:31.135Z,92.40
2019-02-28T10:35:43.033Z,91.80
2019-02-28T10:41:00.004Z,91.80
2019-02-28T10:46:20.112Z,91.70
2019-02-28T10:51:35.568Z,91.80
2019-02-28T10:56:52.215Z,91.80
2019-02-28T11:02:08.956Z,91.70
2019-02-28T11:07:25.597Z,91.60
2019-02-28T11:12:42.446Z,92.30
2019-02-28T11:17:59.556Z,92.50
2019-02-28T11:23:16.279Z,92.70
2019-02-28T11:28:32.879Z,92.30
2019-02-28T11:33:49.669Z,92.20
2019-02-28T11:39:06.865Z,91.70
2019-02-28T11:44:23.307Z,91.50
2019-02-28T11:49:39.894Z,91.60
2019-02-28T11:54:56.476Z,91.90
2019-02-28T12:00:13.482Z,91.70
2019-02-28T12:05:30.706Z,92.10
2019-02-28T12:10:47.397Z,92.20
2019-02-28T12:16:04.143Z,92.00
2019-02-28T12:21:21.108Z,92.10
2019-02-28T12:26:37.750Z,91.80
2019-02-28T12:31:54.581Z,91.30
2019-02-28T12:37:11.630Z,91.20
2019-02-28T12:42:28.077Z,91.10
2019-02-28T12:47:45.902Z,92.10
2019-02-28T12:53:02.838Z,92.50
2019-02-28T12:58:20.125Z,93.00
2019-02-28T13:03:36.522Z,93.00
2019-02-28T13:08:53.805Z,92.90
2019-02-28T13:14:10.616Z,92.80
2019-02-28T13:19:27.353Z,92.70
2019-02-28T13:24:46.238Z,93.00
2019-02-28T13:30:05.369Z,92.70
2019-02-28T13:35:22.106Z,92.60
2019-02-28T13:40:40.784Z,92.30
2019-02-28T13:45:57.799Z,92.50
2019-02-28T13:51:14.844Z,92.30
2019-02-28T13:56:33.077Z,92.10
2019-02-28T14:01:52.031Z,91.50
2019-02-28T14:07:08.321Z,90.80
2019-02-28T14:12:25.274Z,90.30
2019-02-28T14:17:42.130Z,90.50
2019-02-28T14:22:58.956Z,91.70
2019-02-28T14:28:15.860Z,92.20
2019-02-28T14:33:32.837Z,92.70
2019-02-28T14:38:49.702Z,93.10
2019-02-28T14:44:06.792Z,93.60
2019-02-28T14:49:23.342Z,94.10
2019-02-28T14:54:40.110Z,93.90
2019-02-28T14:59:56.314Z,93.90
2019-02-28T15:05:16.602Z,93.70
2019-02-28T15:10:34.246Z,93.70
2019-02-28T15:15:53.251Z,93.40
2019-02-28T15:21:08.680Z,93.20
2019-02-28T15:26:26.561Z,93.10
2019-02-28T15:31:44.658Z,93.20
2019-02-28T15:37:01.652Z,93.10
2019-02-28T15:42:18.621Z,93.10
2019-02-28T15:47:35.461Z,93.40
2019-02-28T15:52:52.653Z,93.20
2019-02-28T15:58:08.937Z,93.00
2019-02-28T16:03:25.851Z,93.00
2019-02-28T16:08:46.841Z,92.90
2019-02-28T16:14:01.262Z,92.70
2019-02-28T16:19:18.862Z,92.50
2019-02-28T16:24:39.619Z,92.50
2019-02-28T16:29:55.805Z,92.40
2019-02-28T16:35:14.603Z,92.50
2019-02-28T16:40:30.883Z,92.40
2019-02-28T16:45:49.342Z,92.20
2019-02-28T16:51:05.685Z,92.30
2019-02-28T16:56:22.958Z,92.30
2019-02-28T17:01:39.310Z,92.40
2019-02-28T17:06:56.998Z,92.20
2019-02-28T17:12:32.935Z,92.00
2019-02-28T17:18:14.584Z,91.90
2019-02-28T17:23:33.804Z,92.00
2019-02-28T17:34:27.681Z,92.60
2019-02-28T17:39:47.409Z,92.40
2019-02-28T17:45:02.702Z,92.20
2019-02-28T17:50:19.779Z,92.40
2019-02-28T17:55:36.893Z,92.40
2019-02-28T18:00:54.063Z,92.60
2019-02-28T18:06:12.061Z,92.70
2019-02-28T18:11:30.875Z,92.70
2019-02-28T18:16:47.584Z,92.50
2019-02-28T18:22:04.578Z,92.40
2019-02-28T18:27:21.277Z,92.60
2019-02-28T18:32:58.063Z,92.00
2019-02-28T18:38:35.736Z,91.90
2019-02-28T18:44:13.459Z,91.70
2019-02-28T18:49:50.468Z,91.80
2019-02-28T18:55:34.654Z,91.70
2019-02-28T19:01:05.388Z,91.70
2019-02-28T19:06:23.262Z,91.70
2019-02-28T19:11:40.712Z,91.70
2019-02-28T19:16:58.506Z,91.90
2019-02-28T19:22:15.544Z,91.90
2019-02-28T19:27:32.926Z,91.80
2019-02-28T19:33:09.913Z,91.70
2019-02-28T19:38:27.758Z,91.70
2019-02-28T19:43:45.188Z,91.70
2019-02-28T19:49:02.125Z,91.70
2019-02-28T19:54:19.033Z,91.60
2019-02-28T19:59:36.065Z,91.60
2019-02-28T20:04:53.275Z,91.60
2019-02-28T20:10:10.485Z,91.70
2019-02-28T20:15:29.908Z,91.60
2019-02-28T20:20:46.997Z,91.50
2019-02-28T20:26:04.643Z,91.50
2019-02-28T20:31:21.815Z,91.60
2019-02-28T20:36:39.047Z,91.50
2019-02-28T20:41:56.106Z,91.50
2019-02-28T20:47:13.055Z,91.60
2019-02-28T20:52:30.353Z,91.60
2019-02-28T20:57:47.266Z,92.00
2019-02-28T21:03:04.108Z,91.60
2019-02-28T21:08:21.189Z,91.70
2019-02-28T21:13:38.045Z,91.70
2019-02-28T21:18:55.711Z,91.70
2019-02-28T21:24:12.885Z,91.80
2019-02-28T21:29:29.894Z,92.00
2019-02-28T21:34:47.136Z,92.00
2019-02-28T21:40:04.225Z,92.30
2019-02-28T21:45:21.479Z,92.30
2019-02-28T21:50:38.983Z,92.40
2019-02-28T21:55:56.248Z,92.40
2019-02-28T22:01:13.870Z,92.60
2019-02-28T22:06:31.209Z,93.00
2019-02-28T22:11:48.138Z,93.10
2019-02-28T22:17:06.103Z,93.10
2019-02-28T22:22:23.527Z,93.30
2019-02-28T22:27:40.521Z,93.40
2019-02-28T22:32:59.711Z,93.70
2019-02-28T22:38:16.807Z,93.90
2019-02-28T22:43:34.458Z,93.80
2019-02-28T22:48:51.445Z,93.70
2019-02-28T22:54:09.019Z,93.50
2019-02-28T22:59:26.106Z,93.60
2019-02-28T23:04:43.226Z,93.50
2019-02-28T23:10:01.192Z,93.60
2019-02-28T23:15:17.997Z,93.50
2019-02-28T23:20:35.728Z,93.30
2019-02-28T23:25:52.829Z,93.40
2019-02-28T23:31:10.590Z,93.40
2019-02-28T23:36:27.575Z,93.30
2019-02-28T23:41:44.520Z,93.40
2019-02-28T23:47:02.254Z,93.30
2019-02-28T23:52:22.314Z,93.40
2019-02-28T23:57:40.001Z,93.30
